sensor_id;sensor_type;location;lat;lon;timestamp;P1;durP1;ratioP1;P2;durP2;ratioP2
5543;SDS011;2795;47.652;13.128;2024-03-07T00:02:30;30.53;;;10.23;;
5543;SDS011;2795;47.652;13.128;2024-03-07T00:04:58;30.40;;;10.23;;
5543;SDS011;2795;47.652;13.128;2024-03-07T00:07:25;27.83;;;9.87;;
5543;SDS011;2795;47.652;13.128;2024-03-07T00:09:52;23.93;;;9.53;;
5543;SDS011;2795;47.652;13.128;2024-03-07T00:12:20;29.83;;;9.77;;
5543;SDS011;2795;47.652;13.128;2024-03-07T00:14:49;25.83;;;9.50;;
5543;SDS011;2795;47.652;13.128;2024-03-07T00:17:16;29.10;;;10.07;;
5543;SDS011;2795;47.652;13.128;2024-03-07T00:19:44;28.33;;;9.67;;
5543;SDS011;2795;47.652;13.128;2024-03-07T00:22:11;29.73;;;9.27;;
5543;SDS011;2795;47.652;13.128;2024-03-07T00:24:37;38.20;;;12.00;;
5543;SDS011;2795;47.652;13.128;2024-03-07T00:27:05;28.97;;;10.23;;
5543;SDS011;2795;47.652;13.128;2024-03-07T00:29:32;23.90;;;8.90;;
5543;SDS011;2795;47.652;13.128;2024-03-07T00:32:01;28.53;;;10.17;;
5543;SDS011;2795;47.652;13.128;2024-03-07T00:34:29;32.37;;;10.13;;
5543;SDS011;2795;47.652;13.128;2024-03-07T00:36:55;30.93;;;10.77;;
5543;SDS011;2795;47.652;13.128;2024-03-07T00:39:24;31.47;;;11.47;;
5543;SDS011;2795;47.652;13.128;2024-03-07T00:41:54;25.77;;;9.53;;
5543;SDS011;2795;47.652;13.128;2024-03-07T00:44:21;39.77;;;12.53;;
5543;SDS011;2795;47.652;13.128;2024-03-07T00:46:48;22.03;;;9.60;;
5543;SDS011;2795;47.652;13.128;2024-03-07T00:49:14;37.60;;;12.67;;
5543;SDS011;2795;47.652;13.128;2024-03-07T00:51:42;27.43;;;11.17;;
5543;SDS011;2795;47.652;13.128;2024-03-07T00:54:08;26.33;;;9.67;;
5543;SDS011;2795;47.652;13.128;2024-03-07T00:56:35;27.33;;;9.57;;
5543;SDS011;2795;47.652;13.128;2024-03-07T00:59:02;30.33;;;10.40;;
5543;SDS011;2795;47.652;13.128;2024-03-07T01:01:29;26.50;;;11.10;;
5543;SDS011;2795;47.652;13.128;2024-03-07T01:03:57;32.30;;;11.10;;
5543;SDS011;2795;47.652;13.128;2024-03-07T01:06:24;32.80;;;11.70;;
5543;SDS011;2795;47.652;13.128;2024-03-07T01:08:50;33.67;;;11.33;;
5543;SDS011;2795;47.652;13.128;2024-03-07T01:11:18;34.27;;;11.23;;
5543;SDS011;2795;47.652;13.128;2024-03-07T01:13:45;31.67;;;10.93;;
5543;SDS011;2795;47.652;13.128;2024-03-07T01:16:12;28.53;;;11.10;;
5543;SDS011;2795;47.652;13.128;2024-03-07T01:18:40;33.60;;;10.57;;
5543;SDS011;2795;47.652;13.128;2024-03-07T01:21:07;25.83;;;10.60;;
5543;SDS011;2795;47.652;13.128;2024-03-07T01:23:34;26.77;;;10.10;;
5543;SDS011;2795;47.652;13.128;2024-03-07T01:26:01;42.70;;;13.20;;
5543;SDS011;2795;47.652;13.128;2024-03-07T01:28:28;25.03;;;10.30;;
5543;SDS011;2795;47.652;13.128;2024-03-07T01:30:57;31.83;;;11.47;;
5543;SDS011;2795;47.652;13.128;2024-03-07T01:33:24;34.53;;;11.30;;
5543;SDS011;2795;47.652;13.128;2024-03-07T01:35:51;27.47;;;10.27;;
5543;SDS011;2795;47.652;13.128;2024-03-07T01:38:18;32.70;;;11.77;;
5543;SDS011;2795;47.652;13.128;2024-03-07T01:40:45;30.10;;;10.67;;
5543;SDS011;2795;47.652;13.128;2024-03-07T01:43:12;19.67;;;8.47;;
5543;SDS011;2795;47.652;13.128;2024-03-07T01:45:38;32.13;;;11.30;;
5543;SDS011;2795;47.652;13.128;2024-03-07T01:48:08;30.70;;;11.03;;
5543;SDS011;2795;47.652;13.128;2024-03-07T01:50:36;22.20;;;9.60;;
5543;SDS011;2795;47.652;13.128;2024-03-07T01:53:06;33.07;;;10.97;;
5543;SDS011;2795;47.652;13.128;2024-03-07T01:55:33;22.70;;;10.17;;
5543;SDS011;2795;47.652;13.128;2024-03-07T01:58:01;30.53;;;9.90;;
5543;SDS011;2795;47.652;13.128;2024-03-07T02:00:29;28.33;;;11.40;;
5543;SDS011;2795;47.652;13.128;2024-03-07T02:02:55;30.40;;;11.33;;
5543;SDS011;2795;47.652;13.128;2024-03-07T02:05:23;30.43;;;10.33;;
5543;SDS011;2795;47.652;13.128;2024-03-07T02:07:51;25.53;;;9.57;;
5543;SDS011;2795;47.652;13.128;2024-03-07T02:10:17;33.43;;;11.10;;
5543;SDS011;2795;47.652;13.128;2024-03-07T02:12:44;26.73;;;9.33;;
5543;SDS011;2795;47.652;13.128;2024-03-07T02:15:14;26.27;;;8.90;;
5543;SDS011;2795;47.652;13.128;2024-03-07T02:17:41;32.63;;;10.70;;
5543;SDS011;2795;47.652;13.128;2024-03-07T02:20:09;22.27;;;8.30;;
5543;SDS011;2795;47.652;13.128;2024-03-07T02:22:37;38.33;;;11.63;;
5543;SDS011;2795;47.652;13.128;2024-03-07T02:25:05;27.43;;;9.13;;
5543;SDS011;2795;47.652;13.128;2024-03-07T02:27:32;23.80;;;8.73;;
5543;SDS011;2795;47.652;13.128;2024-03-07T02:29:59;30.80;;;8.87;;
5543;SDS011;2795;47.652;13.128;2024-03-07T02:32:28;21.97;;;7.93;;
5543;SDS011;2795;47.652;13.128;2024-03-07T02:34:55;28.83;;;8.87;;
5543;SDS011;2795;47.652;13.128;2024-03-07T02:37:22;29.80;;;8.83;;
5543;SDS011;2795;47.652;13.128;2024-03-07T02:39:48;19.53;;;7.60;;
5543;SDS011;2795;47.652;13.128;2024-03-07T02:42:15;31.83;;;8.83;;
5543;SDS011;2795;47.652;13.128;2024-03-07T02:44:42;31.50;;;9.23;;
5543;SDS011;2795;47.652;13.128;2024-03-07T02:47:09;21.10;;;8.13;;
5543;SDS011;2795;47.652;13.128;2024-03-07T02:49:36;22.00;;;7.80;;
5543;SDS011;2795;47.652;13.128;2024-03-07T02:52:03;27.33;;;9.77;;
5543;SDS011;2795;47.652;13.128;2024-03-07T02:54:34;26.00;;;8.77;;
5543;SDS011;2795;47.652;13.128;2024-03-07T02:57:01;36.23;;;10.03;;
5543;SDS011;2795;47.652;13.128;2024-03-07T02:59:28;19.53;;;7.83;;
5543;SDS011;2795;47.652;13.128;2024-03-07T03:01:55;21.37;;;8.20;;
5543;SDS011;2795;47.652;13.128;2024-03-07T03:04:22;27.50;;;9.40;;
5543;SDS011;2795;47.652;13.128;2024-03-07T03:06:48;20.63;;;7.80;;
5543;SDS011;2795;47.652;13.128;2024-03-07T03:09:15;32.87;;;10.10;;
5543;SDS011;2795;47.652;13.128;2024-03-07T03:11:44;23.10;;;8.47;;
5543;SDS011;2795;47.652;13.128;2024-03-07T03:14:12;18.57;;;7.97;;
5543;SDS011;2795;47.652;13.128;2024-03-07T03:16:43;29.10;;;9.57;;
5543;SDS011;2795;47.652;13.128;2024-03-07T03:19:14;23.90;;;8.53;;
5543;SDS011;2795;47.652;13.128;2024-03-07T03:21:41;23.90;;;9.17;;
5543;SDS011;2795;47.652;13.128;2024-03-07T03:24:09;17.70;;;7.23;;
5543;SDS011;2795;47.652;13.128;2024-03-07T03:26:36;26.53;;;8.20;;
5543;SDS011;2795;47.652;13.128;2024-03-07T03:29:03;21.83;;;7.67;;
5543;SDS011;2795;47.652;13.128;2024-03-07T03:31:30;23.70;;;7.40;;
5543;SDS011;2795;47.652;13.128;2024-03-07T03:33:56;19.70;;;7.00;;
5543;SDS011;2795;47.652;13.128;2024-03-07T03:36:23;21.83;;;7.77;;
5543;SDS011;2795;47.652;13.128;2024-03-07T03:38:51;16.37;;;6.73;;
5543;SDS011;2795;47.652;13.128;2024-03-07T03:41:18;23.93;;;8.80;;
5543;SDS011;2795;47.652;13.128;2024-03-07T03:43:45;17.90;;;8.17;;
5543;SDS011;2795;47.652;13.128;2024-03-07T03:46:13;26.63;;;9.37;;
5543;SDS011;2795;47.652;13.128;2024-03-07T03:48:40;31.20;;;10.27;;
5543;SDS011;2795;47.652;13.128;2024-03-07T03:51:07;23.37;;;8.23;;
5543;SDS011;2795;47.652;13.128;2024-03-07T03:53:35;25.80;;;8.70;;
5543;SDS011;2795;47.652;13.128;2024-03-07T03:56:03;26.70;;;8.80;;
5543;SDS011;2795;47.652;13.128;2024-03-07T03:58:33;31.10;;;9.10;;
5543;SDS011;2795;47.652;13.128;2024-03-07T04:01:00;22.57;;;8.00;;
5543;SDS011;2795;47.652;13.128;2024-03-07T04:03:27;21.00;;;7.00;;
5543;SDS011;2795;47.652;13.128;2024-03-07T04:05:54;22.10;;;7.90;;
5543;SDS011;2795;47.652;13.128;2024-03-07T04:08:24;18.60;;;7.40;;
5543;SDS011;2795;47.652;13.128;2024-03-07T04:10:50;16.10;;;7.57;;
5543;SDS011;2795;47.652;13.128;2024-03-07T04:13:17;23.60;;;7.97;;
5543;SDS011;2795;47.652;13.128;2024-03-07T04:15:44;21.33;;;7.90;;
5543;SDS011;2795;47.652;13.128;2024-03-07T04:18:11;22.03;;;7.90;;
5543;SDS011;2795;47.652;13.128;2024-03-07T04:20:38;28.70;;;9.27;;
5543;SDS011;2795;47.652;13.128;2024-03-07T04:23:06;24.50;;;7.87;;
5543;SDS011;2795;47.652;13.128;2024-03-07T04:25:37;20.63;;;7.70;;
5543;SDS011;2795;47.652;13.128;2024-03-07T04:28:04;18.73;;;6.90;;
5543;SDS011;2795;47.652;13.128;2024-03-07T04:30:31;16.33;;;6.13;;
5543;SDS011;2795;47.652;13.128;2024-03-07T04:32:58;21.97;;;7.50;;
5543;SDS011;2795;47.652;13.128;2024-03-07T04:35:26;15.77;;;6.97;;
5543;SDS011;2795;47.652;13.128;2024-03-07T04:37:52;25.10;;;7.57;;
5543;SDS011;2795;47.652;13.128;2024-03-07T04:40:19;24.97;;;7.83;;
5543;SDS011;2795;47.652;13.128;2024-03-07T04:42:47;14.80;;;5.93;;
5543;SDS011;2795;47.652;13.128;2024-03-07T04:45:18;22.83;;;7.60;;
5543;SDS011;2795;47.652;13.128;2024-03-07T04:47:45;17.13;;;5.60;;
5543;SDS011;2795;47.652;13.128;2024-03-07T04:50:16;25.03;;;8.27;;
5543;SDS011;2795;47.652;13.128;2024-03-07T04:52:46;22.13;;;6.60;;
5543;SDS011;2795;47.652;13.128;2024-03-07T04:55:15;16.73;;;6.10;;
5543;SDS011;2795;47.652;13.128;2024-03-07T04:57:41;18.43;;;6.60;;
5543;SDS011;2795;47.652;13.128;2024-03-07T05:00:09;15.27;;;6.20;;
5543;SDS011;2795;47.652;13.128;2024-03-07T05:02:43;23.17;;;7.60;;
5543;SDS011;2795;47.652;13.128;2024-03-07T05:05:10;11.00;;;5.13;;
5543;SDS011;2795;47.652;13.128;2024-03-07T05:07:38;18.63;;;6.13;;
5543;SDS011;2795;47.652;13.128;2024-03-07T05:10:06;20.77;;;6.93;;
5543;SDS011;2795;47.652;13.128;2024-03-07T05:12:34;22.03;;;6.57;;
5543;SDS011;2795;47.652;13.128;2024-03-07T05:15:01;20.43;;;6.70;;
5543;SDS011;2795;47.652;13.128;2024-03-07T05:17:30;28.47;;;7.70;;
5543;SDS011;2795;47.652;13.128;2024-03-07T05:20:01;18.80;;;6.73;;
5543;SDS011;2795;47.652;13.128;2024-03-07T05:22:27;15.17;;;6.00;;
5543;SDS011;2795;47.652;13.128;2024-03-07T05:24:56;26.27;;;7.93;;
5543;SDS011;2795;47.652;13.128;2024-03-07T05:27:25;17.27;;;6.30;;
5543;SDS011;2795;47.652;13.128;2024-03-07T05:29:54;30.90;;;8.93;;
5543;SDS011;2795;47.652;13.128;2024-03-07T05:32:23;21.80;;;6.90;;
5543;SDS011;2795;47.652;13.128;2024-03-07T05:34:51;14.73;;;6.00;;
5543;SDS011;2795;47.652;13.128;2024-03-07T05:37:20;21.67;;;7.07;;
5543;SDS011;2795;47.652;13.128;2024-03-07T05:39:50;20.50;;;7.63;;
5543;SDS011;2795;47.652;13.128;2024-03-07T05:42:18;32.43;;;9.87;;
5543;SDS011;2795;47.652;13.128;2024-03-07T05:44:45;30.87;;;12.67;;
5543;SDS011;2795;47.652;13.128;2024-03-07T05:47:12;42.57;;;14.30;;
5543;SDS011;2795;47.652;13.128;2024-03-07T05:49:40;26.40;;;9.90;;
5543;SDS011;2795;47.652;13.128;2024-03-07T05:52:07;21.83;;;7.93;;
5543;SDS011;2795;47.652;13.128;2024-03-07T05:54:34;29.97;;;8.60;;
5543;SDS011;2795;47.652;13.128;2024-03-07T05:57:01;25.60;;;7.60;;
5543;SDS011;2795;47.652;13.128;2024-03-07T05:59:29;23.97;;;8.50;;
5543;SDS011;2795;47.652;13.128;2024-03-07T06:01:57;28.03;;;9.37;;
5543;SDS011;2795;47.652;13.128;2024-03-07T06:04:24;25.13;;;8.83;;
5543;SDS011;2795;47.652;13.128;2024-03-07T06:06:51;14.77;;;6.70;;
5543;SDS011;2795;47.652;13.128;2024-03-07T06:09:17;18.13;;;7.13;;
5543;SDS011;2795;47.652;13.128;2024-03-07T06:11:48;19.40;;;7.23;;
5543;SDS011;2795;47.652;13.128;2024-03-07T06:14:15;29.40;;;8.47;;
5543;SDS011;2795;47.652;13.128;2024-03-07T06:16:42;22.73;;;7.47;;
5543;SDS011;2795;47.652;13.128;2024-03-07T06:19:10;25.13;;;7.83;;
5543;SDS011;2795;47.652;13.128;2024-03-07T06:21:38;20.27;;;7.27;;
5543;SDS011;2795;47.652;13.128;2024-03-07T06:24:06;22.00;;;7.37;;
5543;SDS011;2795;47.652;13.128;2024-03-07T06:26:35;23.47;;;7.77;;
5543;SDS011;2795;47.652;13.128;2024-03-07T06:29:22;26.17;;;8.73;;
5543;SDS011;2795;47.652;13.128;2024-03-07T06:31:49;15.73;;;6.60;;
5543;SDS011;2795;47.652;13.128;2024-03-07T06:34:16;25.33;;;7.83;;
5543;SDS011;2795;47.652;13.128;2024-03-07T06:36:44;23.43;;;8.77;;
5543;SDS011;2795;47.652;13.128;2024-03-07T06:39:11;25.87;;;9.90;;
5543;SDS011;2795;47.652;13.128;2024-03-07T06:41:38;30.73;;;9.63;;
5543;SDS011;2795;47.652;13.128;2024-03-07T06:44:06;23.63;;;8.20;;
5543;SDS011;2795;47.652;13.128;2024-03-07T06:46:34;25.73;;;9.10;;
5543;SDS011;2795;47.652;13.128;2024-03-07T06:49:01;22.97;;;9.00;;
5543;SDS011;2795;47.652;13.128;2024-03-07T06:51:27;17.47;;;7.70;;
5543;SDS011;2795;47.652;13.128;2024-03-07T06:53:55;27.97;;;10.60;;
5543;SDS011;2795;47.652;13.128;2024-03-07T06:56:23;39.33;;;13.80;;
5543;SDS011;2795;47.652;13.128;2024-03-07T06:58:51;29.70;;;12.30;;
5543;SDS011;2795;47.652;13.128;2024-03-07T07:01:18;27.63;;;10.03;;
5543;SDS011;2795;47.652;13.128;2024-03-07T07:03:46;22.77;;;10.00;;
5543;SDS011;2795;47.652;13.128;2024-03-07T07:06:15;24.07;;;9.30;;
5543;SDS011;2795;47.652;13.128;2024-03-07T07:08:43;24.93;;;9.53;;
5543;SDS011;2795;47.652;13.128;2024-03-07T07:11:12;35.00;;;12.50;;
5543;SDS011;2795;47.652;13.128;2024-03-07T07:13:39;30.83;;;11.00;;
5543;SDS011;2795;47.652;13.128;2024-03-07T07:16:06;26.13;;;9.50;;
5543;SDS011;2795;47.652;13.128;2024-03-07T07:18:33;36.27;;;11.70;;
5543;SDS011;2795;47.652;13.128;2024-03-07T07:21:00;29.30;;;10.93;;
5543;SDS011;2795;47.652;13.128;2024-03-07T07:23:29;28.63;;;10.37;;
5543;SDS011;2795;47.652;13.128;2024-03-07T07:25:57;38.07;;;14.00;;
5543;SDS011;2795;47.652;13.128;2024-03-07T07:28:24;115.33;;;39.43;;
5543;SDS011;2795;47.652;13.128;2024-03-07T07:30:52;62.83;;;23.90;;
5543;SDS011;2795;47.652;13.128;2024-03-07T07:33:18;36.13;;;12.60;;
5543;SDS011;2795;47.652;13.128;2024-03-07T07:35:46;33.70;;;10.77;;
5543;SDS011;2795;47.652;13.128;2024-03-07T07:38:13;37.73;;;12.07;;
5543;SDS011;2795;47.652;13.128;2024-03-07T07:40:41;28.97;;;11.00;;
5543;SDS011;2795;47.652;13.128;2024-03-07T07:43:11;27.10;;;11.20;;
5543;SDS011;2795;47.652;13.128;2024-03-07T07:45:51;25.67;;;9.83;;
5543;SDS011;2795;47.652;13.128;2024-03-07T07:48:18;29.97;;;10.70;;
5543;SDS011;2795;47.652;13.128;2024-03-07T07:50:46;29.87;;;10.60;;
5543;SDS011;2795;47.652;13.128;2024-03-07T07:53:15;36.10;;;12.43;;
5543;SDS011;2795;47.652;13.128;2024-03-07T07:55:42;35.43;;;12.00;;
5543;SDS011;2795;47.652;13.128;2024-03-07T07:58:09;28.10;;;10.57;;
5543;SDS011;2795;47.652;13.128;2024-03-07T08:00:36;34.47;;;12.43;;
5543;SDS011;2795;47.652;13.128;2024-03-07T08:03:04;41.30;;;12.00;;
5543;SDS011;2795;47.652;13.128;2024-03-07T08:05:35;30.90;;;12.07;;
5543;SDS011;2795;47.652;13.128;2024-03-07T08:08:03;35.03;;;11.63;;
5543;SDS011;2795;47.652;13.128;2024-03-07T08:10:37;37.73;;;13.27;;
5543;SDS011;2795;47.652;13.128;2024-03-07T08:13:06;30.50;;;11.50;;
5543;SDS011;2795;47.652;13.128;2024-03-07T08:15:33;30.83;;;11.70;;
5543;SDS011;2795;47.652;13.128;2024-03-07T08:18:00;30.63;;;12.53;;
5543;SDS011;2795;47.652;13.128;2024-03-07T08:20:27;28.40;;;11.50;;
5543;SDS011;2795;47.652;13.128;2024-03-07T08:22:55;30.53;;;12.00;;
5543;SDS011;2795;47.652;13.128;2024-03-07T08:25:23;32.33;;;12.10;;
5543;SDS011;2795;47.652;13.128;2024-03-07T08:27:52;28.00;;;11.97;;
5543;SDS011;2795;47.652;13.128;2024-03-07T08:30:20;33.53;;;11.70;;
5543;SDS011;2795;47.652;13.128;2024-03-07T08:32:48;33.67;;;11.67;;
5543;SDS011;2795;47.652;13.128;2024-03-07T08:35:18;31.13;;;12.57;;
5543;SDS011;2795;47.652;13.128;2024-03-07T08:37:46;26.40;;;10.70;;
5543;SDS011;2795;47.652;13.128;2024-03-07T08:40:20;36.73;;;13.83;;
5543;SDS011;2795;47.652;13.128;2024-03-07T08:42:54;31.67;;;12.53;;
5543;SDS011;2795;47.652;13.128;2024-03-07T08:45:21;29.43;;;11.50;;
5543;SDS011;2795;47.652;13.128;2024-03-07T08:47:52;28.27;;;11.70;;
5543;SDS011;2795;47.652;13.128;2024-03-07T08:50:25;30.80;;;11.70;;
5543;SDS011;2795;47.652;13.128;2024-03-07T08:52:53;89.97;;;27.47;;
5543;SDS011;2795;47.652;13.128;2024-03-07T08:55:20;81.60;;;30.53;;
5543;SDS011;2795;47.652;13.128;2024-03-07T08:57:49;39.17;;;16.43;;
5543;SDS011;2795;47.652;13.128;2024-03-07T09:00:16;39.90;;;14.70;;
5543;SDS011;2795;47.652;13.128;2024-03-07T09:02:56;26.03;;;11.07;;
5543;SDS011;2795;47.652;13.128;2024-03-07T09:05:30;34.47;;;13.00;;
5543;SDS011;2795;47.652;13.128;2024-03-07T09:08:00;37.50;;;14.07;;
5543;SDS011;2795;47.652;13.128;2024-03-07T09:10:28;28.13;;;11.80;;
5543;SDS011;2795;47.652;13.128;2024-03-07T09:12:57;32.80;;;12.20;;
5543;SDS011;2795;47.652;13.128;2024-03-07T09:15:25;31.87;;;12.00;;
5543;SDS011;2795;47.652;13.128;2024-03-07T09:17:52;24.53;;;11.83;;
5543;SDS011;2795;47.652;13.128;2024-03-07T09:20:20;28.90;;;11.70;;
5543;SDS011;2795;47.652;13.128;2024-03-07T09:22:47;35.33;;;16.37;;
5543;SDS011;2795;47.652;13.128;2024-03-07T09:25:15;37.37;;;15.27;;
5543;SDS011;2795;47.652;13.128;2024-03-07T09:27:43;30.90;;;11.70;;
5543;SDS011;2795;47.652;13.128;2024-03-07T09:30:10;27.13;;;11.27;;
5543;SDS011;2795;47.652;13.128;2024-03-07T09:32:48;29.00;;;10.60;;
5543;SDS011;2795;47.652;13.128;2024-03-07T09:35:15;31.67;;;11.30;;
5543;SDS011;2795;47.652;13.128;2024-03-07T09:37:43;27.90;;;10.93;;
5543;SDS011;2795;47.652;13.128;2024-03-07T09:40:11;24.57;;;9.70;;
5543;SDS011;2795;47.652;13.128;2024-03-07T09:42:45;39.33;;;13.53;;
5543;SDS011;2795;47.652;13.128;2024-03-07T09:45:15;42.17;;;13.50;;
5543;SDS011;2795;47.652;13.128;2024-03-07T09:47:47;32.63;;;10.80;;
5543;SDS011;2795;47.652;13.128;2024-03-07T09:50:17;50.70;;;20.70;;
5543;SDS011;2795;47.652;13.128;2024-03-07T09:52:49;50.93;;;20.10;;
5543;SDS011;2795;47.652;13.128;2024-03-07T09:55:18;54.00;;;23.93;;
5543;SDS011;2795;47.652;13.128;2024-03-07T09:57:46;27.60;;;13.97;;
5543;SDS011;2795;47.652;13.128;2024-03-07T10:00:16;29.50;;;11.10;;
5543;SDS011;2795;47.652;13.128;2024-03-07T10:02:52;28.40;;;11.40;;
5543;SDS011;2795;47.652;13.128;2024-03-07T10:05:20;32.50;;;11.30;;
5543;SDS011;2795;47.652;13.128;2024-03-07T10:07:49;28.00;;;10.27;;
5543;SDS011;2795;47.652;13.128;2024-03-07T10:10:19;30.70;;;11.40;;
5543;SDS011;2795;47.652;13.128;2024-03-07T10:12:46;28.70;;;10.40;;
5543;SDS011;2795;47.652;13.128;2024-03-07T10:15:13;30.97;;;11.33;;
5543;SDS011;2795;47.652;13.128;2024-03-07T10:17:44;30.50;;;11.50;;
5543;SDS011;2795;47.652;13.128;2024-03-07T10:20:13;33.83;;;12.30;;
5543;SDS011;2795;47.652;13.128;2024-03-07T10:22:41;25.97;;;10.50;;
5543;SDS011;2795;47.652;13.128;2024-03-07T10:25:08;27.63;;;11.97;;
5543;SDS011;2795;47.652;13.128;2024-03-07T10:27:36;40.70;;;14.43;;
5543;SDS011;2795;47.652;13.128;2024-03-07T10:30:04;32.60;;;12.83;;
5543;SDS011;2795;47.652;13.128;2024-03-07T10:32:34;32.03;;;12.20;;
5543;SDS011;2795;47.652;13.128;2024-03-07T10:35:02;30.13;;;12.07;;
5543;SDS011;2795;47.652;13.128;2024-03-07T10:37:30;27.83;;;11.70;;
5543;SDS011;2795;47.652;13.128;2024-03-07T10:39:57;39.10;;;12.13;;
5543;SDS011;2795;47.652;13.128;2024-03-07T10:42:24;34.80;;;13.07;;
5543;SDS011;2795;47.652;13.128;2024-03-07T10:44:58;39.33;;;11.90;;
5543;SDS011;2795;47.652;13.128;2024-03-07T10:47:30;31.17;;;13.20;;
5543;SDS011;2795;47.652;13.128;2024-03-07T10:53:01;40.07;;;15.00;;
5543;SDS011;2795;47.652;13.128;2024-03-07T10:55:34;29.13;;;12.73;;
5543;SDS011;2795;47.652;13.128;2024-03-07T11:01:25;29.90;;;13.50;;
5543;SDS011;2795;47.652;13.128;2024-03-07T11:03:52;36.93;;;13.27;;
5543;SDS011;2795;47.652;13.128;2024-03-07T11:06:24;39.27;;;15.57;;
5543;SDS011;2795;47.652;13.128;2024-03-07T11:08:51;34.87;;;14.43;;
5543;SDS011;2795;47.652;13.128;2024-03-07T11:11:18;35.03;;;13.70;;
5543;SDS011;2795;47.652;13.128;2024-03-07T11:13:45;34.97;;;13.27;;
5543;SDS011;2795;47.652;13.128;2024-03-07T11:16:12;30.33;;;13.40;;
5543;SDS011;2795;47.652;13.128;2024-03-07T11:18:41;40.27;;;15.10;;
5543;SDS011;2795;47.652;13.128;2024-03-07T11:21:24;30.70;;;13.20;;
5543;SDS011;2795;47.652;13.128;2024-03-07T11:24:07;38.20;;;14.03;;
5543;SDS011;2795;47.652;13.128;2024-03-07T11:26:35;49.33;;;16.20;;
5543;SDS011;2795;47.652;13.128;2024-03-07T11:29:02;44.93;;;17.23;;
5543;SDS011;2795;47.652;13.128;2024-03-07T11:32:00;39.33;;;15.37;;
5543;SDS011;2795;47.652;13.128;2024-03-07T11:34:29;37.33;;;14.63;;
5543;SDS011;2795;47.652;13.128;2024-03-07T11:36:56;45.73;;;15.93;;
5543;SDS011;2795;47.652;13.128;2024-03-07T11:39:39;33.67;;;13.83;;
5543;SDS011;2795;47.652;13.128;2024-03-07T11:42:18;37.47;;;15.57;;
5543;SDS011;2795;47.652;13.128;2024-03-07T11:44:59;42.70;;;16.07;;
5543;SDS011;2795;47.652;13.128;2024-03-07T11:47:37;36.63;;;15.07;;
5543;SDS011;2795;47.652;13.128;2024-03-07T11:50:06;40.83;;;15.63;;
5543;SDS011;2795;47.652;13.128;2024-03-07T11:52:38;43.33;;;16.97;;
5543;SDS011;2795;47.652;13.128;2024-03-07T11:55:08;41.20;;;17.47;;
5543;SDS011;2795;47.652;13.128;2024-03-07T11:57:36;45.70;;;17.63;;
5543;SDS011;2795;47.652;13.128;2024-03-07T12:00:04;42.47;;;17.17;;
5543;SDS011;2795;47.652;13.128;2024-03-07T12:02:37;49.03;;;18.80;;
5543;SDS011;2795;47.652;13.128;2024-03-07T12:05:05;47.83;;;19.40;;
5543;SDS011;2795;47.652;13.128;2024-03-07T12:07:33;56.10;;;20.30;;
5543;SDS011;2795;47.652;13.128;2024-03-07T12:10:03;51.03;;;21.33;;
5543;SDS011;2795;47.652;13.128;2024-03-07T12:12:31;54.50;;;22.73;;
5543;SDS011;2795;47.652;13.128;2024-03-07T12:14:59;51.50;;;21.13;;
5543;SDS011;2795;47.652;13.128;2024-03-07T12:17:29;52.20;;;20.00;;
5543;SDS011;2795;47.652;13.128;2024-03-07T12:19:56;53.30;;;21.30;;
5543;SDS011;2795;47.652;13.128;2024-03-07T12:22:28;54.60;;;22.10;;
5543;SDS011;2795;47.652;13.128;2024-03-07T12:25:00;54.17;;;21.80;;
5543;SDS011;2795;47.652;13.128;2024-03-07T12:27:35;53.80;;;20.70;;
5543;SDS011;2795;47.652;13.128;2024-03-07T12:30:26;54.03;;;21.87;;
5543;SDS011;2795;47.652;13.128;2024-03-07T12:32:54;44.97;;;17.70;;
5543;SDS011;2795;47.652;13.128;2024-03-07T12:35:21;49.47;;;19.53;;
5543;SDS011;2795;47.652;13.128;2024-03-07T12:37:49;44.70;;;17.60;;
5543;SDS011;2795;47.652;13.128;2024-03-07T12:40:16;50.60;;;19.13;;
5543;SDS011;2795;47.652;13.128;2024-03-07T12:42:51;39.90;;;16.37;;
5543;SDS011;2795;47.652;13.128;2024-03-07T12:45:21;47.83;;;18.77;;
5543;SDS011;2795;47.652;13.128;2024-03-07T12:47:48;50.20;;;18.77;;
5543;SDS011;2795;47.652;13.128;2024-03-07T12:50:19;54.03;;;20.37;;
5543;SDS011;2795;47.652;13.128;2024-03-07T12:52:47;60.80;;;19.80;;
5543;SDS011;2795;47.652;13.128;2024-03-07T12:55:17;60.60;;;20.80;;
5543;SDS011;2795;47.652;13.128;2024-03-07T12:57:50;46.93;;;18.40;;
5543;SDS011;2795;47.652;13.128;2024-03-07T13:00:17;57.73;;;20.60;;
5543;SDS011;2795;47.652;13.128;2024-03-07T13:02:47;44.90;;;17.80;;
5543;SDS011;2795;47.652;13.128;2024-03-07T13:05:15;46.13;;;18.07;;
5543;SDS011;2795;47.652;13.128;2024-03-07T13:07:48;39.43;;;16.43;;
5543;SDS011;2795;47.652;13.128;2024-03-07T13:10:15;47.63;;;18.40;;
5543;SDS011;2795;47.652;13.128;2024-03-07T13:12:42;46.93;;;19.13;;
5543;SDS011;2795;47.652;13.128;2024-03-07T13:15:12;53.47;;;21.17;;
5543;SDS011;2795;47.652;13.128;2024-03-07T13:17:39;55.23;;;20.60;;
5543;SDS011;2795;47.652;13.128;2024-03-07T13:20:08;47.20;;;18.83;;
5543;SDS011;2795;47.652;13.128;2024-03-07T13:22:40;56.73;;;21.73;;
5543;SDS011;2795;47.652;13.128;2024-03-07T13:25:14;61.07;;;22.10;;
5543;SDS011;2795;47.652;13.128;2024-03-07T13:30:27;45.60;;;16.93;;
5543;SDS011;2795;47.652;13.128;2024-03-07T13:32:55;47.53;;;19.87;;
5543;SDS011;2795;47.652;13.128;2024-03-07T13:35:26;50.33;;;20.23;;
5543;SDS011;2795;47.652;13.128;2024-03-07T13:37:54;49.83;;;21.00;;
5543;SDS011;2795;47.652;13.128;2024-03-07T13:40:22;45.57;;;18.90;;
5543;SDS011;2795;47.652;13.128;2024-03-07T13:45:29;46.07;;;17.80;;
5543;SDS011;2795;47.652;13.128;2024-03-07T13:48:06;42.50;;;18.07;;
5543;SDS011;2795;47.652;13.128;2024-03-07T13:50:34;47.37;;;18.70;;
5543;SDS011;2795;47.652;13.128;2024-03-07T13:53:21;49.30;;;20.30;;
5543;SDS011;2795;47.652;13.128;2024-03-07T14:01:37;41.80;;;16.37;;
5543;SDS011;2795;47.652;13.128;2024-03-07T14:21:06;31.93;;;11.47;;
5543;SDS011;2795;47.652;13.128;2024-03-07T14:27:18;30.80;;;10.97;;
5543;SDS011;2795;47.652;13.128;2024-03-07T14:32:32;25.63;;;9.90;;
5543;SDS011;2795;47.652;13.128;2024-03-07T14:35:02;36.27;;;11.83;;
5543;SDS011;2795;47.652;13.128;2024-03-07T14:37:44;30.67;;;10.77;;
5543;SDS011;2795;47.652;13.128;2024-03-07T14:40:15;29.87;;;10.53;;
5543;SDS011;2795;47.652;13.128;2024-03-07T14:42:44;30.23;;;10.37;;
5543;SDS011;2795;47.652;13.128;2024-03-07T14:45:14;27.83;;;9.87;;
5543;SDS011;2795;47.652;13.128;2024-03-07T14:47:47;29.83;;;10.23;;
5543;SDS011;2795;47.652;13.128;2024-03-07T14:50:15;33.70;;;10.13;;
5543;SDS011;2795;47.652;13.128;2024-03-07T14:52:42;26.70;;;10.33;;
5543;SDS011;2795;47.652;13.128;2024-03-07T14:55:11;24.40;;;9.87;;
5543;SDS011;2795;47.652;13.128;2024-03-07T14:57:40;30.20;;;10.57;;
5543;SDS011;2795;47.652;13.128;2024-03-07T15:00:08;24.50;;;9.10;;
5543;SDS011;2795;47.652;13.128;2024-03-07T15:02:58;30.10;;;10.77;;
5543;SDS011;2795;47.652;13.128;2024-03-07T15:05:26;29.87;;;11.00;;
5543;SDS011;2795;47.652;13.128;2024-03-07T15:07:53;34.57;;;11.70;;
5543;SDS011;2795;47.652;13.128;2024-03-07T15:10:27;40.87;;;13.07;;
5543;SDS011;2795;47.652;13.128;2024-03-07T15:12:57;39.13;;;13.17;;
5543;SDS011;2795;47.652;13.128;2024-03-07T15:15:24;40.53;;;12.77;;
5543;SDS011;2795;47.652;13.128;2024-03-07T15:17:51;36.67;;;12.17;;
5543;SDS011;2795;47.652;13.128;2024-03-07T15:20:18;39.20;;;12.37;;
5543;SDS011;2795;47.652;13.128;2024-03-07T15:22:53;39.67;;;13.53;;
5543;SDS011;2795;47.652;13.128;2024-03-07T15:25:21;43.80;;;12.90;;
5543;SDS011;2795;47.652;13.128;2024-03-07T15:27:51;28.67;;;11.00;;
5543;SDS011;2795;47.652;13.128;2024-03-07T15:30:19;28.57;;;10.57;;